»·PEaware :: N6EN 05V-KDEN

N6EN :: 05V-KDEN

FLIGHT INFORMATION

Flight Status: Arrived
Operator: Privately registered:
United States
More flights under this callsign
Pilot: Lamont A. (24221)
Aircraft: SOCATA TBM-900
(TBM9)
More flights by this aircraft type
Origin: 05V Blanca
United States
Destination: KDEN Denver Intl
United States
More flights between these airports :: More routes between these airports
Route: GOSIP PUB LARKS2
File this flight plan on PilotEdge
Remarks: im new
Altitude:
(Current/Filed)
29,000ft
Speed:
(Current/Filed)
250kts
Departed: 25-May-20 11:16 AM
Arrived: 25-May-20 12:24 PM
Distance/Time
Traveled:
152nm/1:07
Distance/Time
To Go:
Arrived

Flight Plot

Page will automatically refresh every two minutes.

Flight plan parsing failed; only flown route is shown


Map Options




Map Legend


Flown Route
Filed Route
Departure Airport
Arrival Airport
Navaid (VOR, NDB)
Fix

Horizontal Profiles

Position Reports

Time Latitude Longitude Heading Altitude Ground
Speed
25-May-20 10:53 37.416759 -105.544971 180 7723ft 0kts
25-May-20 10:54 37.416759 -105.544971 180 7723ft 0kts
25-May-20 10:55 37.416759 -105.544971 180 7723ft 0kts
25-May-20 10:56 37.416759 -105.544971 180 7723ft 0kts
25-May-20 10:57 37.416759 -105.544971 180 7723ft 0kts
25-May-20 10:58 37.416759 -105.544971 180 7723ft 0kts
25-May-20 10:59 37.416759 -105.544971 180 7723ft 0kts
25-May-20 11:00 37.416759 -105.544971 180 7723ft 0kts
25-May-20 11:01 37.416759 -105.544971 180 7723ft 0kts
25-May-20 11:02 37.416759 -105.544971 180 7723ft 0kts
25-May-20 11:03 37.416759 -105.544971 180 7723ft 0kts
25-May-20 11:04 37.416759 -105.544971 180 7723ft 0kts
25-May-20 11:05 37.416759 -105.544971 180 7723ft 0kts
25-May-20 11:06 37.416759 -105.544971 180 7723ft 0kts
25-May-20 11:07 37.416759 -105.544971 180 7723ft 0kts
25-May-20 11:08 37.416759 -105.544971 180 7723ft 0kts
25-May-20 11:09 37.416759 -105.544971 180 7723ft 0kts
25-May-20 11:10 37.416759 -105.544971 180 7723ft 0kts
25-May-20 11:11 37.416759 -105.544971 180 7723ft 0kts
25-May-20 11:12 37.416686 -105.545079 277 7723ft 4kts
25-May-20 11:13 37.416957 -105.545725 231 7723ft 0kts
25-May-20 11:14 37.416607 -105.546170 219 7723ft 13kts
25-May-20 11:15 37.412176 -105.551253 221 7717ft 53kts
25-May-20 11:16 37.404488 -105.559868 25 7713ft 1kts
25-May-20 11:17 37.415982 -105.547037 42 7740ft 128kts
25-May-20 11:18 37.434219 -105.506704 74 9190ft 141kts
25-May-20 11:19 37.443724 -105.455819 74 10872ft 152kts
25-May-20 11:20 37.453647 -105.403566 74 12572ft 156kts
25-May-20 11:21 37.463974 -105.349928 75 14138ft 160kts
25-May-20 11:22 37.476777 -105.295062 71 15521ft 178kts
25-May-20 11:23 37.492755 -105.223037 73 16753ft 220kts
25-May-20 11:24 37.508292 -105.148495 73 18074ft 223kts
25-May-20 11:25 37.524148 -105.071531 73 19276ft 231kts
25-May-20 11:26 37.540620 -104.991397 72 20540ft 241kts
25-May-20 11:27 37.557982 -104.906769 72 21848ft 257kts
25-May-20 11:28 37.576404 -104.816516 73 23115ft 269kts
25-May-20 11:29 37.595203 -104.723963 74 24450ft 271kts
25-May-20 11:30 37.614954 -104.634016 62 25941ft 268kts
25-May-20 11:31 37.674496 -104.585213 6 27280ft 263kts
25-May-20 11:32 37.747446 -104.566061 4 28528ft 273kts
25-May-20 11:33 37.824764 -104.546862 6 29219ft 302kts
25-May-20 11:34 37.912194 -104.525096 6 29202ft 333kts
25-May-20 11:35 38.005245 -104.501872 6 29193ft 347kts
25-May-20 11:36 38.100940 -104.477956 6 29192ft 352kts
25-May-20 11:37 38.197239 -104.455526 356 29178ft 349kts
25-May-20 11:38 38.279085 -104.499731 302 29186ft 313kts
25-May-20 11:39 38.306018 -104.597443 269 29188ft 291kts
25-May-20 11:40 38.313386 -104.700507 268 29185ft 291kts
25-May-20 11:41 38.320478 -104.803292 268 29187ft 291kts
25-May-20 11:42 38.327480 -104.906560 269 29193ft 291kts
25-May-20 11:43 38.334328 -105.009173 272 29198ft 292kts
25-May-20 11:44 38.341272 -105.113184 275 29202ft 298kts
25-May-20 11:45 38.348285 -105.219576 275 29203ft 303kts
25-May-20 11:46 38.355195 -105.326733 275 29199ft 306kts
25-May-20 11:47 38.362052 -105.434406 275 29201ft 306kts
25-May-20 11:48 38.368832 -105.542502 275 29213ft 306kts
25-May-20 11:49 38.375475 -105.650299 274 29218ft 306kts
25-May-20 11:50 38.382055 -105.758407 274 29223ft 307kts
25-May-20 11:51 38.388562 -105.867078 274 29220ft 307kts
25-May-20 11:52 38.413536 -105.967537 311 29215ft 308kts
25-May-20 11:53 38.490671 -106.007990 349 29223ft 314kts
25-May-20 11:54 38.577325 -106.022925 349 29219ft 314kts
25-May-20 11:55 38.664033 -106.037839 350 29221ft 314kts
25-May-20 11:56 38.750619 -106.045756 9 29211ft 318kts
25-May-20 11:57 38.824595 -105.977297 51 27797ft 343kts
25-May-20 11:58 38.884326 -105.883501 48 26300ft 336kts
25-May-20 11:59 38.943660 -105.792207 48 24828ft 331kts
25-May-20 12:00 39.001974 -105.702243 48 23376ft 327kts
25-May-20 12:01 39.060043 -105.612398 49 21931ft 325kts
25-May-20 12:02 39.117397 -105.523414 49 20503ft 323kts
25-May-20 12:03 39.174623 -105.434385 49 19077ft 321kts
25-May-20 12:04 39.231326 -105.345920 49 17658ft 312kts
25-May-20 12:06 39.282528 -105.265835 49 17000ft 265kts
25-May-20 12:07 39.328156 -105.194285 49 17003ft 253kts
25-May-20 12:08 39.371826 -105.125672 49 17003ft 239kts
25-May-20 12:09 39.411110 -105.057153 58 16715ft 238kts
25-May-20 12:10 39.442431 -104.985524 57 15160ft 217kts
25-May-20 12:11 39.470163 -104.918507 57 13802ft 200kts
25-May-20 12:12 39.494729 -104.856341 57 12646ft 196kts
25-May-20 12:13 39.519872 -104.793959 57 11259ft 194kts
25-May-20 12:14 39.542388 -104.737881 57 10988ft 155kts
25-May-20 12:15 39.570616 -104.695427 16 9797ft 154kts
25-May-20 12:16 39.611823 -104.689010 4 8491ft 148kts
25-May-20 12:17 39.651189 -104.679391 28 7473ft 130kts
25-May-20 12:18 39.679677 -104.657700 29 7539ft 132kts
25-May-20 12:19 39.717978 -104.643141 0 7514ft 155kts
25-May-20 12:20 39.757572 -104.642663 2 6949ft 149kts
25-May-20 12:21 39.800840 -104.642084 2 6082ft 136kts
25-May-20 12:22 39.829295 -104.641823 9 5567ft 89kts
25-May-20 12:23 39.849577 -104.641534 355 5437ft 41kts
25-May-20 12:23 39.852878 -104.642888 321 5437ft 0kts
25-May-20 12:25 39.852878 -104.642888 321 5437ft 0kts
25-May-20 12:25 39.852878 -104.642888 321 5437ft 0kts
25-May-20 12:26 39.853543 -104.643347 337 5437ft 11kts
25-May-20 12:27 39.856629 -104.646062 269 5437ft 22kts
25-May-20 12:28 39.856714 -104.655339 270 5437ft 33kts
25-May-20 12:29 39.856475 -104.662310 194 5437ft 17kts
25-May-20 12:30 39.848212 -104.662419 179 5437ft 34kts
25-May-20 12:31 39.841742 -104.662519 179 5437ft 16kts
25-May-20 12:32 39.839897 -104.665193 263 5437ft 11kts
25-May-20 12:33 39.839657 -104.665440 182 5437ft 0kts
25-May-20 12:34 39.839657 -104.665440 182 5437ft 0kts
25-May-20 12:35 39.839657 -104.665440 182 5437ft 0kts
25-May-20 12:36 39.839657 -104.665440 182 5437ft 0kts
25-May-20 12:37 39.839657 -104.665440 182 5437ft 0kts

Navigation Log

Ident Type
Flight plan parsing failed, navigation log unavailable